ESKN

Stockholm Skavsta Airport

Stockholm / Nyköping, Sweden
METAR ESKN 222120Z 14008KT CAVOK 05/02 Q1015
Observed Flight Rules
Apr-22 @ 21:20 UTC (17 minutes ago) Visual Flight Rules
Wind Visibility Clouds
140° at 8 knots 10,000+ meters
  • Clear skies
Temperatures Readings
Current 5°C / 41°F
Dewpoint 2°C / 36°F
Humidity 81%
Altimeter 29.97" Hg
Pressure 1015 hPa
Elevation 43
METAR ESKN 222120Z 14008KT CAVOK 05/02 Q1015
Observed Flight Rules
Apr-22 @ 21:20 UTC
(17 minutes ago)
VFR
Wind Visibility
140° at 8 knots 10,000+ meters
Clouds
  • Clear skies
Temperature Dewpoint
5°C / 41°F 2°C / 36°F
Humidity Altimeter Pressure
81% 29.97" Hg 1015 hPa